createdAt,value
2024-03-12T00:02:12.880Z,9.73
2024-03-12T00:04:42.043Z,12.02
2024-03-12T00:07:11.068Z,11.75
2024-03-12T00:09:39.578Z,14.75
2024-03-12T00:12:08.410Z,10.25
2024-03-12T00:14:36.962Z,9.73
2024-03-12T00:17:05.265Z,12.00
2024-03-12T00:19:34.616Z,12.43
2024-03-12T00:22:03.324Z,14.07
2024-03-12T00:24:31.914Z,12.38
2024-03-12T00:27:00.278Z,13.80
2024-03-12T00:29:29.178Z,11.15
2024-03-12T00:31:59.063Z,11.57
2024-03-12T00:34:27.488Z,13.30
2024-03-12T00:36:55.870Z,14.90
2024-03-12T00:39:26.543Z,12.77
2024-03-12T00:41:56.686Z,12.80
2024-03-12T00:44:25.689Z,11.35
2024-03-12T00:46:54.455Z,13.88
2024-03-12T00:49:23.082Z,12.30
2024-03-12T00:51:51.480Z,12.82
2024-03-12T00:54:19.796Z,13.57
2024-03-12T00:56:50.815Z,11.68
2024-03-12T00:59:19.796Z,13.45
2024-03-12T01:01:52.178Z,12.13
2024-03-12T01:04:20.570Z,11.90
2024-03-12T01:06:50.542Z,10.40
2024-03-12T01:09:19.019Z,11.20
2024-03-12T01:11:48.408Z,13.00
2024-03-12T01:14:18.439Z,15.85
2024-03-12T01:16:46.788Z,12.73
2024-03-12T01:19:15.274Z,14.32
2024-03-12T01:21:43.674Z,12.68
2024-03-12T01:24:13.834Z,12.63
2024-03-12T01:26:43.147Z,11.23
2024-03-12T01:29:11.498Z,27.90
2024-03-12T01:31:42.237Z,19.58
2024-03-12T01:34:11.825Z,15.82
2024-03-12T01:36:41.163Z,12.82
2024-03-12T01:39:09.869Z,11.00
2024-03-12T01:41:45.881Z,11.30
2024-03-12T01:44:14.749Z,14.43
2024-03-12T01:46:43.742Z,17.48
2024-03-12T01:49:13.904Z,15.00
2024-03-12T01:51:45.791Z,11.45
2024-03-12T01:54:15.191Z,13.07
2024-03-12T01:56:43.579Z,14.40
2024-03-12T01:59:13.046Z,10.95
2024-03-12T02:01:41.561Z,14.65
2024-03-12T02:04:15.997Z,14.55
2024-03-12T02:06:44.426Z,13.65
2024-03-12T02:09:13.451Z,14.75
2024-03-12T02:11:41.887Z,15.45
2024-03-12T02:14:10.228Z,14.32
2024-03-12T02:16:40.012Z,14.73
2024-03-12T02:19:09.635Z,16.00
2024-03-12T02:21:38.444Z,14.75
2024-03-12T02:24:07.607Z,16.90
2024-03-12T02:26:35.987Z,19.67
2024-03-12T02:29:07.407Z,19.92
2024-03-12T02:31:37.278Z,15.63
2024-03-12T02:34:05.759Z,19.88
2024-03-12T02:36:38.182Z,17.48
2024-03-12T02:39:07.827Z,21.88
2024-03-12T02:41:36.557Z,18.92
2024-03-12T02:44:05.159Z,15.07
2024-03-12T02:46:33.529Z,14.18
2024-03-12T02:49:03.848Z,15.43
2024-03-12T02:51:32.440Z,16.80
2024-03-12T02:54:00.877Z,16.67
2024-03-12T02:56:29.266Z,17.25
2024-03-12T02:58:57.631Z,23.27
2024-03-12T03:01:26.737Z,17.70
2024-03-12T03:03:58.678Z,18.77
2024-03-12T03:06:27.211Z,17.95
2024-03-12T03:08:55.513Z,17.88
2024-03-12T03:11:23.900Z,23.35
2024-03-12T03:13:52.274Z,20.85
2024-03-12T03:16:21.856Z,18.50
2024-03-12T03:18:50.587Z,16.70
2024-03-12T03:21:18.896Z,16.63
2024-03-12T03:23:47.197Z,16.83
2024-03-12T03:26:15.981Z,20.38
2024-03-12T03:28:44.292Z,23.20
2024-03-12T03:31:12.826Z,25.02
2024-03-12T03:33:44.597Z,27.08
2024-03-12T03:36:16.121Z,24.52
2024-03-12T03:38:45.013Z,25.55
2024-03-12T03:41:13.330Z,23.75
2024-03-12T03:43:44.236Z,19.58
2024-03-12T03:46:12.755Z,18.70
2024-03-12T03:48:41.176Z,23.70
2024-03-12T03:51:09.777Z,17.77
2024-03-12T03:53:38.234Z,21.08
2024-03-12T03:56:14.100Z,20.15
2024-03-12T03:58:44.793Z,23.15
2024-03-12T04:01:15.091Z,20.88
2024-03-12T04:03:43.638Z,23.40
2024-03-12T04:06:12.161Z,24.33
2024-03-12T04:08:40.558Z,21.98
2024-03-12T04:11:09.839Z,25.35
2024-03-12T04:13:40.690Z,24.27
2024-03-12T04:16:09.101Z,29.20
2024-03-12T04:18:37.757Z,23.67
2024-03-12T04:21:06.968Z,23.38
2024-03-12T04:23:35.306Z,25.92
2024-03-12T04:26:04.848Z,23.52
2024-03-12T04:28:33.220Z,26.25
2024-03-12T04:31:01.773Z,25.58
2024-03-12T04:33:30.146Z,24.88
2024-03-12T04:35:58.481Z,26.38
2024-03-12T04:38:26.906Z,24.13
2024-03-12T04:40:55.345Z,26.58
2024-03-12T04:43:23.693Z,24.60
2024-03-12T04:45:52.004Z,20.73
2024-03-12T04:48:22.730Z,24.10
2024-03-12T04:50:51.130Z,19.88
2024-03-12T04:53:22.366Z,22.52
2024-03-12T04:55:52.207Z,19.40
2024-03-12T04:58:20.626Z,27.88
2024-03-12T05:00:49.143Z,26.55
2024-03-12T05:03:18.610Z,17.08
2024-03-12T05:05:47.283Z,20.27
2024-03-12T05:08:16.023Z,19.90
2024-03-12T05:10:45.189Z,22.98
2024-03-12T05:13:13.617Z,15.77
2024-03-12T05:15:42.016Z,19.50
2024-03-12T05:18:10.452Z,21.20
2024-03-12T05:20:38.782Z,20.98
2024-03-12T05:23:11.287Z,19.75
2024-03-12T05:25:40.654Z,24.67
2024-03-12T05:28:11.090Z,25.95
2024-03-12T05:30:42.198Z,23.33
2024-03-12T05:33:13.541Z,25.77
2024-03-12T05:35:48.785Z,28.02
2024-03-12T05:38:33.916Z,25.90
2024-03-12T05:41:16.303Z,26.70
2024-03-12T05:44:03.307Z,24.52
2024-03-12T05:46:50.478Z,28.88
2024-03-12T05:49:20.738Z,22.77
2024-03-12T05:51:49.357Z,24.97
2024-03-12T05:54:17.785Z,18.17
2024-03-12T05:56:56.332Z,25.80
2024-03-12T05:59:27.101Z,26.45
2024-03-12T06:01:55.551Z,27.15
2024-03-12T06:04:24.062Z,27.17
2024-03-12T06:06:52.682Z,20.52
2024-03-12T06:09:23.712Z,25.92
2024-03-12T06:11:52.828Z,24.70
2024-03-12T06:14:21.480Z,26.55
2024-03-12T06:16:49.848Z,27.92
2024-03-12T06:19:18.411Z,28.30
2024-03-12T06:21:47.202Z,25.13
2024-03-12T06:24:15.607Z,29.42
2024-03-12T06:26:45.009Z,30.80
2024-03-12T06:29:15.114Z,27.92
2024-03-12T06:31:43.910Z,34.35
2024-03-12T06:34:12.309Z,31.05
2024-03-12T06:36:41.248Z,24.13
2024-03-12T06:39:18.740Z,31.85
2024-03-12T06:41:47.821Z,29.35
2024-03-12T06:44:18.206Z,30.35
2024-03-12T06:46:46.901Z,29.60
2024-03-12T06:49:15.406Z,36.22
2024-03-12T06:51:48.204Z,34.95
2024-03-12T06:54:16.772Z,29.67
2024-03-12T06:56:47.525Z,31.80
2024-03-12T06:59:16.383Z,31.55
2024-03-12T07:01:46.499Z,27.75
2024-03-12T07:04:15.102Z,26.90
2024-03-12T07:06:44.217Z,23.45
2024-03-12T07:09:23.651Z,34.30
2024-03-12T07:11:52.171Z,34.30
2024-03-12T07:14:30.611Z,35.53
2024-03-12T07:16:59.152Z,34.45
2024-03-12T07:19:27.622Z,34.10
2024-03-12T07:21:56.054Z,36.85
2024-03-12T07:24:24.453Z,31.42
2024-03-12T07:26:52.820Z,33.35
2024-03-12T07:29:21.155Z,40.45
2024-03-12T07:31:50.227Z,27.52
2024-03-12T07:34:18.894Z,39.05
2024-03-12T07:36:47.485Z,36.53
2024-03-12T07:39:31.584Z,39.15
2024-03-12T07:42:00.516Z,34.65
2024-03-12T07:44:28.895Z,32.13
2024-03-12T07:46:57.903Z,46.85
2024-03-12T07:49:26.555Z,29.20
2024-03-12T07:51:54.959Z,44.25
2024-03-12T07:54:23.344Z,45.15
2024-03-12T07:56:51.859Z,39.70
2024-03-12T07:59:23.814Z,37.75
2024-03-12T08:01:55.477Z,39.50
2024-03-12T08:04:27.221Z,37.97
2024-03-12T08:06:56.143Z,29.75
2024-03-12T08:09:24.678Z,36.28
2024-03-12T08:12:18.835Z,33.28
2024-03-12T08:14:47.115Z,34.25
2024-03-12T08:17:16.206Z,29.60
2024-03-12T08:19:45.615Z,35.00
2024-03-12T08:22:14.376Z,31.13
2024-03-12T08:24:42.854Z,33.97
2024-03-12T08:27:15.036Z,30.80
2024-03-12T08:29:44.710Z,36.97
2024-03-12T08:32:13.182Z,27.77
2024-03-12T08:34:42.853Z,33.78
2024-03-12T08:37:13.044Z,31.00
2024-03-12T08:39:41.975Z,31.70
2024-03-12T08:42:11.212Z,32.88
2024-03-12T08:44:39.931Z,29.00
2024-03-12T08:47:09.796Z,30.80
2024-03-12T08:49:38.838Z,27.73
2024-03-12T08:52:07.520Z,31.08
2024-03-12T08:54:36.189Z,31.25
2024-03-12T08:57:04.817Z,28.75
2024-03-12T08:59:33.213Z,24.25
2024-03-12T09:02:01.876Z,21.17
2024-03-12T09:04:31.814Z,26.08
2024-03-12T09:07:01.751Z,24.25
2024-03-12T09:09:30.477Z,27.60
2024-03-12T09:11:59.223Z,28.00
2024-03-12T09:14:27.767Z,20.33
2024-03-12T09:16:56.081Z,20.95
2024-03-12T09:19:25.982Z,19.58
2024-03-12T09:21:54.524Z,23.67
2024-03-12T09:24:23.971Z,22.83
2024-03-12T09:26:54.951Z,22.05
2024-03-12T09:29:23.571Z,17.00
2024-03-12T09:31:52.189Z,22.58
2024-03-12T09:34:46.747Z,19.00
2024-03-12T09:37:17.137Z,18.25
2024-03-12T09:39:45.845Z,20.23
2024-03-12T09:42:18.276Z,20.38
2024-03-12T09:44:47.869Z,26.83
2024-03-12T09:47:16.449Z,18.80
2024-03-12T09:49:45.174Z,18.00
2024-03-12T09:52:14.892Z,15.82
2024-03-12T09:54:50.061Z,19.08
2024-03-12T09:57:19.176Z,15.95
2024-03-12T09:59:47.625Z,12.63
2024-03-12T10:02:20.222Z,16.55
2024-03-12T10:04:50.504Z,11.10
2024-03-12T10:07:19.053Z,15.40
2024-03-12T10:09:47.627Z,16.67
2024-03-12T10:12:20.392Z,11.10
2024-03-12T10:14:48.941Z,14.10
2024-03-12T10:17:18.632Z,11.30
2024-03-12T10:19:50.144Z,11.13
2024-03-12T10:22:23.349Z,10.50
2024-03-12T10:25:11.539Z,8.95
2024-03-12T10:30:27.660Z,7.88
2024-03-12T10:32:56.848Z,12.77
2024-03-12T10:35:25.249Z,7.38
2024-03-12T10:37:53.731Z,7.72
2024-03-12T10:40:24.420Z,8.52
2024-03-12T10:43:02.713Z,8.10
2024-03-12T10:45:31.310Z,11.20
2024-03-12T10:48:00.962Z,7.07
2024-03-12T10:50:29.352Z,9.57
2024-03-12T10:52:58.380Z,9.30
2024-03-12T10:55:27.974Z,8.98
2024-03-12T10:57:56.507Z,11.55
2024-03-12T11:00:29.595Z,8.43
2024-03-12T11:02:58.809Z,8.63
2024-03-12T11:05:28.896Z,9.00
2024-03-12T11:07:59.110Z,11.00
2024-03-12T11:10:34.321Z,9.33
2024-03-12T11:13:08.933Z,9.13
2024-03-12T11:15:37.721Z,8.23
2024-03-12T11:18:06.578Z,11.38
2024-03-12T11:20:40.638Z,9.02
2024-03-12T11:23:09.533Z,10.95
2024-03-12T11:25:40.776Z,8.25
2024-03-12T11:31:02.174Z,8.70
2024-03-12T11:33:42.365Z,10.75
2024-03-12T11:36:27.297Z,11.18
2024-03-12T11:38:58.810Z,4.70
2024-03-12T11:42:07.964Z,11.43
2024-03-12T11:44:56.622Z,9.85
2024-03-12T11:47:37.770Z,9.15
2024-03-12T11:50:35.935Z,8.02
2024-03-12T11:53:23.542Z,6.80
2024-03-12T11:56:09.108Z,15.23
2024-03-12T11:58:45.753Z,14.15
2024-03-12T12:01:25.927Z,12.82
2024-03-12T12:04:10.820Z,9.68
2024-03-12T12:06:39.346Z,9.23
2024-03-12T12:09:10.068Z,13.27
2024-03-12T12:11:53.018Z,18.08
2024-03-12T12:14:38.021Z,10.60
2024-03-12T12:17:06.611Z,8.85
2024-03-12T12:19:38.712Z,11.95
2024-03-12T12:22:11.323Z,9.85
2024-03-12T12:24:40.463Z,13.48
2024-03-12T12:27:08.859Z,14.98
2024-03-12T12:29:37.602Z,10.80
2024-03-12T12:32:06.759Z,12.57
2024-03-12T12:34:36.211Z,15.88
2024-03-12T12:37:10.793Z,14.90
2024-03-12T12:39:47.416Z,14.80
2024-03-12T12:42:22.685Z,10.43
2024-03-12T12:44:54.781Z,12.70
2024-03-12T12:47:23.899Z,12.80
2024-03-12T12:49:55.388Z,16.92
2024-03-12T12:52:24.566Z,12.68
2024-03-12T12:55:00.216Z,16.58
2024-03-12T12:57:35.735Z,9.90
2024-03-12T13:00:16.306Z,12.77
2024-03-12T13:02:47.212Z,12.95
2024-03-12T13:05:22.844Z,9.38
2024-03-12T13:07:51.306Z,19.70
2024-03-12T13:10:20.169Z,11.50
2024-03-12T13:12:50.614Z,12.38
2024-03-12T13:15:35.499Z,17.65
2024-03-12T13:18:05.827Z,13.38
2024-03-12T13:20:59.510Z,15.07
2024-03-12T13:23:29.780Z,13.95
2024-03-12T13:26:02.521Z,11.43
2024-03-12T13:28:31.839Z,12.00
2024-03-12T13:31:00.418Z,12.50
2024-03-12T13:33:30.758Z,15.57
2024-03-12T13:36:00.135Z,11.00
2024-03-12T13:38:28.567Z,11.15
2024-03-12T13:40:57.045Z,12.27
2024-03-12T13:43:30.783Z,15.55
2024-03-12T13:45:59.624Z,12.43
2024-03-12T13:48:29.141Z,16.85
2024-03-12T13:51:05.343Z,15.85
2024-03-12T13:53:33.682Z,11.13
2024-03-12T13:56:04.212Z,13.13
2024-03-12T13:58:33.055Z,11.40
2024-03-12T14:01:01.608Z,9.90
2024-03-12T14:03:30.673Z,12.32
2024-03-12T14:06:00.413Z,9.82
2024-03-12T14:08:29.306Z,14.10
2024-03-12T14:10:58.476Z,14.13
2024-03-12T14:13:42.456Z,11.43
2024-03-12T14:16:11.423Z,11.68
2024-03-12T14:18:55.290Z,11.02
2024-03-12T14:21:23.623Z,11.45
2024-03-12T14:23:53.515Z,9.02
2024-03-12T14:26:22.307Z,14.55
2024-03-12T14:28:50.625Z,15.85
2024-03-12T14:31:19.875Z,11.52
2024-03-12T14:33:49.068Z,14.55
2024-03-12T14:36:18.014Z,12.02
2024-03-12T14:38:47.506Z,12.60
2024-03-12T14:41:18.028Z,9.65
2024-03-12T14:43:46.342Z,6.68
2024-03-12T14:46:20.872Z,9.35
2024-03-12T14:48:53.459Z,12.98
2024-03-12T14:51:21.921Z,8.75
2024-03-12T14:53:54.873Z,13.48
2024-03-12T14:56:23.159Z,16.27
2024-03-12T14:58:51.479Z,14.35
2024-03-12T15:01:19.937Z,7.80
2024-03-12T15:03:48.261Z,13.93
2024-03-12T15:06:18.717Z,11.63
2024-03-12T15:08:47.061Z,13.20
2024-03-12T15:11:15.502Z,15.75
2024-03-12T15:13:44.403Z,12.75
2024-03-12T15:16:15.481Z,13.43
2024-03-12T15:18:43.843Z,11.25
2024-03-12T15:21:12.225Z,14.20
2024-03-12T15:23:40.614Z,15.02
2024-03-12T15:26:10.090Z,12.05
2024-03-12T15:28:38.537Z,20.50
2024-03-12T15:31:07.064Z,15.82
2024-03-12T15:33:35.833Z,14.45
2024-03-12T15:36:06.107Z,19.77
2024-03-12T15:38:34.938Z,14.90
2024-03-12T15:41:03.712Z,13.40
2024-03-12T15:43:39.394Z,15.07
2024-03-12T15:46:07.938Z,17.48
2024-03-12T15:49:01.730Z,12.93
2024-03-12T15:51:44.178Z,18.10
2024-03-12T15:54:38.647Z,21.15
2024-03-12T15:57:09.696Z,20.60
2024-03-12T15:59:38.443Z,17.58
2024-03-12T16:02:06.959Z,14.45
2024-03-12T16:04:35.436Z,18.58
2024-03-12T16:07:05.959Z,18.05
2024-03-12T16:09:35.699Z,17.45
2024-03-12T16:12:29.962Z,14.63
2024-03-12T16:15:07.057Z,18.88
2024-03-12T16:17:37.156Z,16.58
2024-03-12T16:20:20.555Z,17.35
2024-03-12T16:22:49.085Z,21.90
2024-03-12T16:25:56.489Z,19.23
2024-03-12T16:28:24.948Z,15.93
2024-03-12T16:30:53.335Z,15.95
2024-03-12T16:33:22.022Z,17.08
2024-03-12T16:35:50.812Z,20.85
2024-03-12T16:38:22.754Z,16.60
2024-03-12T16:40:57.135Z,18.55
2024-03-12T16:43:27.090Z,14.80
2024-03-12T16:45:55.528Z,21.88
2024-03-12T16:48:47.646Z,19.65
2024-03-12T16:51:16.308Z,14.88
2024-03-12T16:53:44.713Z,19.60
2024-03-12T16:56:24.946Z,17.10
2024-03-12T16:58:54.539Z,11.73
2024-03-12T17:01:23.426Z,16.95
2024-03-12T17:04:02.751Z,17.20
2024-03-12T17:06:35.762Z,17.73
2024-03-12T17:09:06.524Z,70.40
2024-03-12T17:12:00.270Z,75.15
2024-03-12T17:14:48.527Z,37.08
2024-03-12T17:17:25.556Z,39.95
2024-03-12T17:19:55.108Z,23.42
2024-03-12T17:22:26.577Z,37.60
2024-03-12T17:24:55.367Z,45.92
2024-03-12T17:27:25.072Z,40.22
2024-03-12T17:29:54.963Z,24.23
2024-03-12T17:32:24.827Z,17.20
2024-03-12T17:34:53.628Z,14.57
2024-03-12T17:37:26.074Z,19.50
2024-03-12T17:39:56.912Z,27.58
2024-03-12T17:42:25.660Z,19.45
2024-03-12T17:44:54.335Z,21.33
2024-03-12T17:47:24.469Z,27.23
2024-03-12T17:49:54.972Z,27.23
2024-03-12T17:52:36.218Z,22.55
2024-03-12T17:55:05.295Z,26.85
2024-03-12T17:57:35.945Z,22.73
2024-03-12T18:00:10.146Z,24.33
2024-03-12T18:02:44.521Z,20.88
2024-03-12T18:05:16.990Z,23.40
2024-03-12T18:07:47.845Z,20.52
2024-03-12T18:10:19.398Z,22.42
2024-03-12T18:12:49.007Z,25.85
2024-03-12T18:15:18.066Z,34.15
2024-03-12T18:17:48.565Z,34.83
2024-03-12T18:20:28.699Z,29.10
2024-03-12T18:22:57.626Z,27.98
2024-03-12T18:25:27.384Z,23.83
2024-03-12T18:27:56.740Z,28.35
2024-03-12T18:30:26.603Z,23.23
2024-03-12T18:32:55.718Z,25.60
2024-03-12T18:35:24.924Z,22.50
2024-03-12T18:37:53.614Z,20.67
2024-03-12T18:40:23.127Z,26.38
2024-03-12T18:42:52.250Z,27.38
2024-03-12T18:45:23.796Z,21.90
2024-03-12T18:47:56.737Z,17.92
2024-03-12T18:50:25.808Z,20.25
2024-03-12T18:52:55.250Z,17.75
2024-03-12T18:55:24.378Z,24.95
2024-03-12T18:57:53.525Z,22.67
2024-03-12T19:00:24.522Z,23.33
2024-03-12T19:02:54.785Z,23.90
2024-03-12T19:05:25.585Z,21.30
2024-03-12T19:07:56.260Z,20.45
2024-03-12T19:10:29.825Z,28.42
2024-03-12T19:12:59.924Z,28.00
2024-03-12T19:15:36.759Z,26.52
2024-03-12T19:18:14.440Z,27.00
2024-03-12T19:20:43.381Z,26.50
2024-03-12T19:23:12.347Z,18.67
2024-03-12T19:25:40.763Z,27.33
2024-03-12T19:28:09.224Z,25.40
2024-03-12T19:30:38.041Z,25.38
2024-03-12T19:33:09.570Z,28.10
2024-03-12T19:35:43.018Z,24.90
2024-03-12T19:38:11.798Z,25.48
2024-03-12T19:40:42.139Z,25.63
2024-03-12T19:43:10.950Z,32.20
2024-03-12T19:45:42.169Z,25.98
2024-03-12T19:50:42.339Z,24.30
2024-03-12T19:53:10.680Z,21.65
2024-03-12T19:55:42.811Z,24.27
2024-03-12T19:58:11.176Z,23.25
2024-03-12T20:00:41.239Z,24.75
2024-03-12T20:03:12.902Z,21.40
2024-03-12T20:05:41.833Z,30.08
2024-03-12T20:08:10.960Z,23.13
2024-03-12T20:10:40.126Z,22.65
2024-03-12T20:13:10.414Z,21.90
2024-03-12T20:15:44.373Z,18.60
2024-03-12T20:18:13.632Z,23.17
2024-03-12T20:20:44.112Z,23.60
2024-03-12T20:23:12.688Z,20.38
2024-03-12T20:25:41.493Z,20.92
2024-03-12T20:28:12.721Z,17.30
2024-03-12T20:30:43.563Z,18.88
2024-03-12T20:33:14.285Z,23.67
2024-03-12T20:35:43.978Z,15.48
2024-03-12T20:38:15.030Z,16.52
2024-03-12T20:40:44.175Z,22.98
2024-03-12T20:43:13.088Z,16.95
2024-03-12T20:45:42.141Z,24.55
2024-03-12T20:48:11.671Z,17.50
2024-03-12T20:50:41.305Z,22.27
2024-03-12T20:53:11.470Z,26.27
2024-03-12T20:55:40.215Z,22.95
2024-03-12T20:58:08.628Z,18.38
2024-03-12T21:00:38.579Z,20.60
2024-03-12T21:03:10.267Z,21.02
2024-03-12T21:05:40.005Z,23.67
2024-03-12T21:08:08.518Z,15.50
2024-03-12T21:10:38.792Z,16.90
2024-03-12T21:13:07.285Z,18.87
2024-03-12T21:15:36.293Z,19.63
2024-03-12T21:18:07.006Z,28.17
2024-03-12T21:20:35.752Z,22.20
2024-03-12T21:23:09.584Z,22.42
2024-03-12T21:25:38.757Z,17.85
2024-03-12T21:28:07.212Z,22.58
2024-03-12T21:30:37.237Z,18.80
2024-03-12T21:33:05.701Z,29.00
2024-03-12T21:35:35.081Z,23.35
2024-03-12T21:38:03.664Z,19.40
2024-03-12T21:40:35.883Z,20.23
2024-03-12T21:43:05.439Z,24.30
2024-03-12T21:45:36.491Z,19.70
2024-03-12T21:48:08.064Z,16.10
2024-03-12T21:50:36.704Z,21.95
2024-03-12T21:53:08.722Z,26.85
2024-03-12T21:55:38.984Z,19.35
2024-03-12T21:58:08.691Z,19.63
2024-03-12T22:00:37.125Z,16.80
2024-03-12T22:03:05.751Z,25.42
2024-03-12T22:05:36.155Z,16.15
2024-03-12T22:08:06.162Z,22.90
2024-03-12T22:10:35.410Z,22.45
2024-03-12T22:13:04.194Z,26.65
2024-03-12T22:15:32.659Z,22.02
2024-03-12T22:18:01.909Z,15.35
2024-03-12T22:20:30.594Z,24.13
2024-03-12T22:22:59.304Z,20.50
2024-03-12T22:25:27.915Z,15.77
2024-03-12T22:27:57.241Z,21.25
2024-03-12T22:30:25.804Z,13.45
2024-03-12T22:32:54.119Z,22.52
2024-03-12T22:35:22.627Z,22.15
2024-03-12T22:37:51.397Z,17.45
2024-03-12T22:40:20.646Z,21.58
2024-03-12T22:42:49.534Z,16.33
2024-03-12T22:45:18.326Z,19.88
2024-03-12T22:47:47.025Z,21.38
2024-03-12T22:50:15.897Z,20.00
2024-03-12T22:52:48.016Z,17.27
2024-03-12T22:55:17.062Z,20.77
2024-03-12T22:57:45.955Z,21.08
2024-03-12T23:00:30.123Z,18.38
2024-03-12T23:03:02.293Z,19.42
2024-03-12T23:05:35.217Z,14.05
2024-03-12T23:08:09.375Z,27.35
2024-03-12T23:10:46.997Z,21.73
2024-03-12T23:13:17.230Z,20.42
2024-03-12T23:15:46.128Z,24.33
2024-03-12T23:18:14.714Z,21.55
2024-03-12T23:20:46.160Z,15.85
2024-03-12T23:23:16.759Z,15.80
2024-03-12T23:25:45.408Z,18.90
2024-03-12T23:28:14.274Z,17.35
2024-03-12T23:30:45.764Z,17.48
2024-03-12T23:35:43.621Z,20.38
2024-03-12T23:38:12.739Z,19.88
2024-03-12T23:40:42.029Z,17.52
2024-03-12T23:43:11.682Z,23.45
2024-03-12T23:45:40.450Z,14.35
2024-03-12T23:48:08.938Z,20.75
2024-03-12T23:50:37.350Z,19.55
2024-03-12T23:53:06.716Z,19.25
2024-03-12T23:55:35.434Z,19.73
2024-03-12T23:58:05.169Z,15.00
